Impacts TAF Board INFO
FOR SITUATIONAL AWARENESS. NOT TO BE USED FOR FLIGHT PLANNING PURPOSES.
IDs:

KPHX - Phoenix/Sky Harbor, AZ, US

Issued at 0825 UTC 18 Oct 2017
Updated at 1107 UTC 18 Oct 2017
Potential Impact None Slight Moderate High
Time1051Z 18/12Z 18/13Z 18/14Z 18/15Z 18/16Z 18/17Z 18/18Z 18/19Z 18/20Z 18/21Z 18/22Z 18/23Z 19/00Z>>
Type OBS PRVL PRVL PRVL PRVL PRVL PRVL PRVL PRVL PRVL PRVL PRVL PRVL PRVL
VIS 10 >6 >6 >6 >6 >6 >6 >6 >6 >6 >6 >6 >6 >6
CIG 250 250 250 250 250 250 250 250 250 200 200 200 200 200
Cover BKN BKN BKN BKN BKN BKN BKN BKN BKN BKN BKN BKN BKN BKN
FltCat VFR VFR VFR VFR VFR VFR VFR VFR VFR VFR VFR VFR VFR VFR
WX -- -- -- -- -- -- -- -- -- -- -- -- -- --
WDir 90 VRB VRB VRB 110 110 110 110 110 260 260 260 260 260
WSpd 6 3 3 3 5 5 5 5 5 7 7 7 7 7
WGst -- -- -- -- -- -- -- -- -- -- -- -- -- --

Raw TAF
KPHX 180825Z 1808/1912 VRB03KT P6SM FEW120 BKN250
  FM181500 11005KT P6SM FEW120 BKN250
  FM182000 26007KT P6SM SCT120 BKN200
  FM190700 11005KT P6SM SCT120 BKN150


Raw METAR
KPHX 181051Z 09006KT 10SM BKN250 23/11 A2988 RMK AO2 SLP101 T02280106
KPHX 180951Z 08005KT 10SM FEW140 BKN250 23/12 A2989 RMK AO2 SLP103 T02330117
KPHX 180851Z 00000KT 10SM FEW140 BKN250 25/12 A2990 RMK AO2 SLP105 T02500117 58003

METAR Board
Radar Display
Forecast Discussion

FOR SITUATIONAL AWARENESS. NOT TO BE USED FOR FLIGHT PLANNING PURPOSES.